sensor_id;sensor_type;location;lat;lon;timestamp;temperature;humidity
44565;DHT22;30275;51.822;-0.326;2023-04-01T00:02:19;9.30;99.90
44565;DHT22;30275;51.822;-0.326;2023-04-01T00:04:45;9.20;99.90
44565;DHT22;30275;51.822;-0.326;2023-04-01T00:07:11;9.20;99.90
44565;DHT22;30275;51.822;-0.326;2023-04-01T00:09:36;9.20;99.90
44565;DHT22;30275;51.822;-0.326;2023-04-01T00:12:03;9.20;99.90
44565;DHT22;30275;51.822;-0.326;2023-04-01T00:14:28;9.20;99.90
44565;DHT22;30275;51.822;-0.326;2023-04-01T00:16:54;9.20;99.90
44565;DHT22;30275;51.822;-0.326;2023-04-01T00:19:20;9.20;99.90
44565;DHT22;30275;51.822;-0.326;2023-04-01T00:21:46;9.20;99.90
44565;DHT22;30275;51.822;-0.326;2023-04-01T00:24:11;9.30;99.90
44565;DHT22;30275;51.822;-0.326;2023-04-01T00:26:37;9.20;99.90
44565;DHT22;30275;51.822;-0.326;2023-04-01T00:29:03;9.30;99.90
44565;DHT22;30275;51.822;-0.326;2023-04-01T00:31:28;9.20;99.90
44565;DHT22;30275;51.822;-0.326;2023-04-01T00:33:55;9.30;99.90
44565;DHT22;30275;51.822;-0.326;2023-04-01T00:36:21;9.20;99.90
44565;DHT22;30275;51.822;-0.326;2023-04-01T00:38:49;9.20;99.90
44565;DHT22;30275;51.822;-0.326;2023-04-01T00:41:15;9.20;99.90
44565;DHT22;30275;51.822;-0.326;2023-04-01T00:43:47;9.20;99.90
44565;DHT22;30275;51.822;-0.326;2023-04-01T00:46:14;9.10;99.90
44565;DHT22;30275;51.822;-0.326;2023-04-01T00:48:43;9.10;99.90
44565;DHT22;30275;51.822;-0.326;2023-04-01T00:51:17;9.20;99.90
44565;DHT22;30275;51.822;-0.326;2023-04-01T00:53:48;9.20;99.90
44565;DHT22;30275;51.822;-0.326;2023-04-01T00:56:22;9.20;99.90
44565;DHT22;30275;51.822;-0.326;2023-04-01T00:58:57;9.20;99.90
44565;DHT22;30275;51.822;-0.326;2023-04-01T01:01:24;9.20;99.90
44565;DHT22;30275;51.822;-0.326;2023-04-01T01:03:51;9.10;99.90
44565;DHT22;30275;51.822;-0.326;2023-04-01T01:06:46;9.10;99.90
44565;DHT22;30275;51.822;-0.326;2023-04-01T01:09:31;9.10;99.90
44565;DHT22;30275;51.822;-0.326;2023-04-01T01:36:13;9.10;99.90
44565;DHT22;30275;51.822;-0.326;2023-04-01T01:38:41;9.00;99.90
44565;DHT22;30275;51.822;-0.326;2023-04-01T01:41:07;9.00;99.90
44565;DHT22;30275;51.822;-0.326;2023-04-01T01:43:43;9.00;99.90
44565;DHT22;30275;51.822;-0.326;2023-04-01T01:46:14;9.10;99.90
44565;DHT22;30275;51.822;-0.326;2023-04-01T01:48:42;9.10;99.90
44565;DHT22;30275;51.822;-0.326;2023-04-01T01:51:08;9.20;99.90
44565;DHT22;30275;51.822;-0.326;2023-04-01T01:53:34;9.10;99.90
44565;DHT22;30275;51.822;-0.326;2023-04-01T01:56:00;9.10;99.90
44565;DHT22;30275;51.822;-0.326;2023-04-01T01:58:30;9.00;99.90
44565;DHT22;30275;51.822;-0.326;2023-04-01T02:01:01;9.00;99.90
44565;DHT22;30275;51.822;-0.326;2023-04-01T02:03:33;8.90;99.90
44565;DHT22;30275;51.822;-0.326;2023-04-01T02:06:02;8.90;99.90
44565;DHT22;30275;51.822;-0.326;2023-04-01T02:08:35;8.80;99.90
44565;DHT22;30275;51.822;-0.326;2023-04-01T02:11:05;8.90;99.90
44565;DHT22;30275;51.822;-0.326;2023-04-01T02:13:52;8.90;99.90
44565;DHT22;30275;51.822;-0.326;2023-04-01T02:16:23;8.80;99.90
44565;DHT22;30275;51.822;-0.326;2023-04-01T02:18:52;8.90;99.90
44565;DHT22;30275;51.822;-0.326;2023-04-01T02:21:21;8.90;99.90
44565;DHT22;30275;51.822;-0.326;2023-04-01T02:23:48;8.90;99.90
44565;DHT22;30275;51.822;-0.326;2023-04-01T02:26:16;8.80;99.90
44565;DHT22;30275;51.822;-0.326;2023-04-01T02:28:43;8.80;99.90
44565;DHT22;30275;51.822;-0.326;2023-04-01T02:31:11;8.70;99.90
44565;DHT22;30275;51.822;-0.326;2023-04-01T02:33:39;8.70;99.90
44565;DHT22;30275;51.822;-0.326;2023-04-01T02:36:05;8.70;99.90
44565;DHT22;30275;51.822;-0.326;2023-04-01T02:38:31;8.70;99.90
44565;DHT22;30275;51.822;-0.326;2023-04-01T02:41:00;8.70;99.90
44565;DHT22;30275;51.822;-0.326;2023-04-01T02:43:27;8.70;99.90
44565;DHT22;30275;51.822;-0.326;2023-04-01T02:45:53;8.70;99.90
44565;DHT22;30275;51.822;-0.326;2023-04-01T02:48:19;8.70;99.90
44565;DHT22;30275;51.822;-0.326;2023-04-01T02:50:45;8.70;99.90
44565;DHT22;30275;51.822;-0.326;2023-04-01T02:53:11;8.70;99.90
44565;DHT22;30275;51.822;-0.326;2023-04-01T02:55:37;8.60;99.90
44565;DHT22;30275;51.822;-0.326;2023-04-01T02:58:03;8.60;99.90
44565;DHT22;30275;51.822;-0.326;2023-04-01T03:00:29;8.60;99.90
44565;DHT22;30275;51.822;-0.326;2023-04-01T03:02:55;8.70;99.90
44565;DHT22;30275;51.822;-0.326;2023-04-01T03:05:22;8.60;99.90
44565;DHT22;30275;51.822;-0.326;2023-04-01T03:07:48;8.60;99.90
44565;DHT22;30275;51.822;-0.326;2023-04-01T03:10:13;8.60;99.90
44565;DHT22;30275;51.822;-0.326;2023-04-01T03:12:39;8.60;99.90
44565;DHT22;30275;51.822;-0.326;2023-04-01T03:15:05;8.60;99.90
44565;DHT22;30275;51.822;-0.326;2023-04-01T03:17:31;8.70;99.90
44565;DHT22;30275;51.822;-0.326;2023-04-01T03:19:57;8.70;99.90
44565;DHT22;30275;51.822;-0.326;2023-04-01T03:22:22;8.70;99.90
44565;DHT22;30275;51.822;-0.326;2023-04-01T03:24:48;8.80;99.90
44565;DHT22;30275;51.822;-0.326;2023-04-01T03:27:14;8.70;99.90
44565;DHT22;30275;51.822;-0.326;2023-04-01T03:29:40;8.70;99.90
44565;DHT22;30275;51.822;-0.326;2023-04-01T03:32:06;8.60;99.90
44565;DHT22;30275;51.822;-0.326;2023-04-01T03:34:31;8.60;99.90
44565;DHT22;30275;51.822;-0.326;2023-04-01T03:36:57;8.50;99.90
44565;DHT22;30275;51.822;-0.326;2023-04-01T03:39:23;8.50;99.90
44565;DHT22;30275;51.822;-0.326;2023-04-01T03:41:49;8.50;99.90
44565;DHT22;30275;51.822;-0.326;2023-04-01T03:44:14;8.50;99.90
44565;DHT22;30275;51.822;-0.326;2023-04-01T03:46:40;8.50;99.90
44565;DHT22;30275;51.822;-0.326;2023-04-01T03:49:10;8.50;99.90
44565;DHT22;30275;51.822;-0.326;2023-04-01T03:51:41;8.50;99.90
44565;DHT22;30275;51.822;-0.326;2023-04-01T03:54:08;8.50;99.90
44565;DHT22;30275;51.822;-0.326;2023-04-01T03:56:34;8.50;99.90
44565;DHT22;30275;51.822;-0.326;2023-04-01T03:59:03;8.50;99.90
44565;DHT22;30275;51.822;-0.326;2023-04-01T04:01:29;8.50;99.90
44565;DHT22;30275;51.822;-0.326;2023-04-01T04:03:55;8.50;99.90
44565;DHT22;30275;51.822;-0.326;2023-04-01T04:06:21;8.40;99.90
44565;DHT22;30275;51.822;-0.326;2023-04-01T04:08:47;8.30;99.90
44565;DHT22;30275;51.822;-0.326;2023-04-01T04:11:12;8.40;99.90
44565;DHT22;30275;51.822;-0.326;2023-04-01T04:13:38;8.40;99.90
44565;DHT22;30275;51.822;-0.326;2023-04-01T04:16:04;8.40;99.90
44565;DHT22;30275;51.822;-0.326;2023-04-01T04:18:30;8.40;99.90
44565;DHT22;30275;51.822;-0.326;2023-04-01T04:20:55;8.40;99.90
44565;DHT22;30275;51.822;-0.326;2023-04-01T04:23:21;8.50;99.90
44565;DHT22;30275;51.822;-0.326;2023-04-01T04:25:57;8.40;99.90
44565;DHT22;30275;51.822;-0.326;2023-04-01T04:28:23;8.40;99.90
44565;DHT22;30275;51.822;-0.326;2023-04-01T04:30:49;8.30;99.90
44565;DHT22;30275;51.822;-0.326;2023-04-01T04:33:15;8.30;99.90
44565;DHT22;30275;51.822;-0.326;2023-04-01T04:35:40;8.30;99.90
44565;DHT22;30275;51.822;-0.326;2023-04-01T04:38:06;8.30;99.90
44565;DHT22;30275;51.822;-0.326;2023-04-01T04:40:31;8.30;99.90
44565;DHT22;30275;51.822;-0.326;2023-04-01T04:42:57;8.30;99.90
44565;DHT22;30275;51.822;-0.326;2023-04-01T04:45:22;8.30;99.90
44565;DHT22;30275;51.822;-0.326;2023-04-01T04:47:48;8.30;99.90
44565;DHT22;30275;51.822;-0.326;2023-04-01T04:50:14;8.30;99.90
44565;DHT22;30275;51.822;-0.326;2023-04-01T04:52:40;8.30;99.90
44565;DHT22;30275;51.822;-0.326;2023-04-01T04:55:06;8.40;99.90
44565;DHT22;30275;51.822;-0.326;2023-04-01T04:57:31;8.40;99.90
44565;DHT22;30275;51.822;-0.326;2023-04-01T04:59:57;8.30;99.90
44565;DHT22;30275;51.822;-0.326;2023-04-01T05:02:23;8.30;99.90
44565;DHT22;30275;51.822;-0.326;2023-04-01T05:04:48;8.20;99.90
44565;DHT22;30275;51.822;-0.326;2023-04-01T05:07:14;8.10;99.90
44565;DHT22;30275;51.822;-0.326;2023-04-01T05:09:40;8.20;99.90
44565;DHT22;30275;51.822;-0.326;2023-04-01T05:12:06;8.20;99.90
44565;DHT22;30275;51.822;-0.326;2023-04-01T05:14:31;8.10;99.90
44565;DHT22;30275;51.822;-0.326;2023-04-01T05:16:57;8.20;99.90
44565;DHT22;30275;51.822;-0.326;2023-04-01T05:19:22;8.20;99.90
44565;DHT22;30275;51.822;-0.326;2023-04-01T05:21:48;8.10;99.90
44565;DHT22;30275;51.822;-0.326;2023-04-01T05:24:13;8.10;99.90
44565;DHT22;30275;51.822;-0.326;2023-04-01T05:26:39;8.10;99.90
44565;DHT22;30275;51.822;-0.326;2023-04-01T05:29:05;8.10;99.90
44565;DHT22;30275;51.822;-0.326;2023-04-01T05:31:31;8.10;99.90
44565;DHT22;30275;51.822;-0.326;2023-04-01T05:33:56;8.10;99.90
44565;DHT22;30275;51.822;-0.326;2023-04-01T05:36:22;8.10;99.90
44565;DHT22;30275;51.822;-0.326;2023-04-01T05:38:47;8.10;99.90
44565;DHT22;30275;51.822;-0.326;2023-04-01T05:41:14;8.10;99.90
44565;DHT22;30275;51.822;-0.326;2023-04-01T05:43:40;8.10;99.90
44565;DHT22;30275;51.822;-0.326;2023-04-01T05:46:06;8.10;99.90
44565;DHT22;30275;51.822;-0.326;2023-04-01T05:48:35;8.10;99.90
44565;DHT22;30275;51.822;-0.326;2023-04-01T05:51:02;8.00;99.90
44565;DHT22;30275;51.822;-0.326;2023-04-01T05:53:28;8.00;99.90
44565;DHT22;30275;51.822;-0.326;2023-04-01T05:55:53;8.00;99.90
44565;DHT22;30275;51.822;-0.326;2023-04-01T05:58:19;7.90;99.90
44565;DHT22;30275;51.822;-0.326;2023-04-01T06:00:44;7.90;99.90
44565;DHT22;30275;51.822;-0.326;2023-04-01T06:03:10;7.90;99.90
44565;DHT22;30275;51.822;-0.326;2023-04-01T06:05:43;7.90;99.90
44565;DHT22;30275;51.822;-0.326;2023-04-01T06:08:15;8.00;99.90
44565;DHT22;30275;51.822;-0.326;2023-04-01T06:24:53;7.80;99.90
44565;DHT22;30275;51.822;-0.326;2023-04-01T06:33:01;7.80;99.90
44565;DHT22;30275;51.822;-0.326;2023-04-01T06:44:18;7.90;99.90
44565;DHT22;30275;51.822;-0.326;2023-04-01T06:47:00;7.90;99.90
44565;DHT22;30275;51.822;-0.326;2023-04-01T06:57:49;7.80;99.90
44565;DHT22;30275;51.822;-0.326;2023-04-01T07:00:27;7.80;99.90
44565;DHT22;30275;51.822;-0.326;2023-04-01T07:03:30;7.80;99.90
44565;DHT22;30275;51.822;-0.326;2023-04-01T07:05:52;7.90;99.90
44565;DHT22;30275;51.822;-0.326;2023-04-01T07:08:22;7.90;99.90
44565;DHT22;30275;51.822;-0.326;2023-04-01T07:11:04;7.80;99.90
44565;DHT22;30275;51.822;-0.326;2023-04-01T07:13:39;7.80;99.90
44565;DHT22;30275;51.822;-0.326;2023-04-01T07:16:34;7.80;99.90
44565;DHT22;30275;51.822;-0.326;2023-04-01T07:19:18;7.90;99.90
44565;DHT22;30275;51.822;-0.326;2023-04-01T07:21:52;7.90;99.90
44565;DHT22;30275;51.822;-0.326;2023-04-01T07:24:34;7.90;99.90
44565;DHT22;30275;51.822;-0.326;2023-04-01T07:27:00;7.90;99.90
44565;DHT22;30275;51.822;-0.326;2023-04-01T07:29:26;8.10;99.90
44565;DHT22;30275;51.822;-0.326;2023-04-01T07:32:03;8.00;99.90
44565;DHT22;30275;51.822;-0.326;2023-04-01T07:34:39;8.00;99.90
44565;DHT22;30275;51.822;-0.326;2023-04-01T07:37:17;8.10;99.90
44565;DHT22;30275;51.822;-0.326;2023-04-01T07:45:30;8.50;99.90
44565;DHT22;30275;51.822;-0.326;2023-04-01T07:53:36;8.70;99.90
44565;DHT22;30275;51.822;-0.326;2023-04-01T07:56:27;8.70;99.90
44565;DHT22;30275;51.822;-0.326;2023-04-01T07:59:05;8.70;99.90
44565;DHT22;30275;51.822;-0.326;2023-04-01T08:02:09;8.60;99.90
44565;DHT22;30275;51.822;-0.326;2023-04-01T08:07:17;8.40;99.90
44565;DHT22;30275;51.822;-0.326;2023-04-01T08:09:59;8.20;99.90
44565;DHT22;30275;51.822;-0.326;2023-04-01T08:12:58;8.20;99.90
44565;DHT22;30275;51.822;-0.326;2023-04-01T08:15:40;8.20;99.90
44565;DHT22;30275;51.822;-0.326;2023-04-01T08:20:53;8.20;99.90
44565;DHT22;30275;51.822;-0.326;2023-04-01T08:23:25;8.30;99.90
44565;DHT22;30275;51.822;-0.326;2023-04-01T08:28:54;8.40;99.90
44565;DHT22;30275;51.822;-0.326;2023-04-01T08:31:50;8.40;99.90
44565;DHT22;30275;51.822;-0.326;2023-04-01T08:34:23;8.40;99.90
44565;DHT22;30275;51.822;-0.326;2023-04-01T08:36:53;8.40;99.90
44565;DHT22;30275;51.822;-0.326;2023-04-01T08:39:25;8.50;99.90
44565;DHT22;30275;51.822;-0.326;2023-04-01T09:00:57;8.40;99.90
44565;DHT22;30275;51.822;-0.326;2023-04-01T09:08:35;8.60;99.90
44565;DHT22;30275;51.822;-0.326;2023-04-01T09:14:37;9.10;99.90
44565;DHT22;30275;51.822;-0.326;2023-04-01T09:17:42;9.00;99.90
44565;DHT22;30275;51.822;-0.326;2023-04-01T09:23:25;8.90;99.90
44565;DHT22;30275;51.822;-0.326;2023-04-01T09:34:13;8.90;99.90
44565;DHT22;30275;51.822;-0.326;2023-04-01T09:36:47;9.00;99.90
44565;DHT22;30275;51.822;-0.326;2023-04-01T09:48:15;9.10;99.90
44565;DHT22;30275;51.822;-0.326;2023-04-01T09:54:01;9.40;99.90
44565;DHT22;30275;51.822;-0.326;2023-04-01T09:59:37;9.30;99.90
44565;DHT22;30275;51.822;-0.326;2023-04-01T10:36:11;9.30;99.90
44565;DHT22;30275;51.822;-0.326;2023-04-01T10:39:01;9.40;99.90
44565;DHT22;30275;51.822;-0.326;2023-04-01T10:56:32;9.20;99.90
44565;DHT22;30275;51.822;-0.326;2023-04-01T10:59:06;9.30;99.90
44565;DHT22;30275;51.822;-0.326;2023-04-01T11:07:31;10.70;99.90
44565;DHT22;30275;51.822;-0.326;2023-04-01T11:24:10;9.90;99.90
44565;DHT22;30275;51.822;-0.326;2023-04-01T11:32:24;10.40;99.90
44565;DHT22;30275;51.822;-0.326;2023-04-01T11:34:56;10.50;99.90
44565;DHT22;30275;51.822;-0.326;2023-04-01T11:37:57;10.40;99.90
44565;DHT22;30275;51.822;-0.326;2023-04-01T11:51:43;10.40;99.90
44565;DHT22;30275;51.822;-0.326;2023-04-01T11:54:22;10.40;99.90
44565;DHT22;30275;51.822;-0.326;2023-04-01T11:59:56;10.40;99.90
44565;DHT22;30275;51.822;-0.326;2023-04-01T12:11:34;10.80;99.90
44565;DHT22;30275;51.822;-0.326;2023-04-01T12:14:11;10.60;99.90
44565;DHT22;30275;51.822;-0.326;2023-04-01T12:16:45;10.50;99.90
44565;DHT22;30275;51.822;-0.326;2023-04-01T12:24:52;10.30;99.90
44565;DHT22;30275;51.822;-0.326;2023-04-01T12:27:45;10.30;99.90
44565;DHT22;30275;51.822;-0.326;2023-04-01T12:30:34;10.30;99.90
44565;DHT22;30275;51.822;-0.326;2023-04-01T12:33:24;10.10;99.90
44565;DHT22;30275;51.822;-0.326;2023-04-01T12:41:53;10.70;99.90
44565;DHT22;30275;51.822;-0.326;2023-04-01T12:52:50;11.60;99.90
44565;DHT22;30275;51.822;-0.326;2023-04-01T12:55:44;11.70;99.90
44565;DHT22;30275;51.822;-0.326;2023-04-01T12:58:22;11.60;99.90
44565;DHT22;30275;51.822;-0.326;2023-04-01T13:01:29;11.40;99.90
44565;DHT22;30275;51.822;-0.326;2023-04-01T13:06:38;10.90;99.90
44565;DHT22;30275;51.822;-0.326;2023-04-01T13:17:58;10.10;99.90
44565;DHT22;30275;51.822;-0.326;2023-04-01T13:28:47;11.30;99.90
44565;DHT22;30275;51.822;-0.326;2023-04-01T13:42:47;10.60;99.90
44565;DHT22;30275;51.822;-0.326;2023-04-01T13:45:26;10.80;99.90
44565;DHT22;30275;51.822;-0.326;2023-04-01T13:48:04;10.70;99.90
44565;DHT22;30275;51.822;-0.326;2023-04-01T13:50:52;11.00;99.90
44565;DHT22;30275;51.822;-0.326;2023-04-01T14:01:13;12.10;99.90
44565;DHT22;30275;51.822;-0.326;2023-04-01T14:06:53;11.60;99.90
44565;DHT22;30275;51.822;-0.326;2023-04-01T14:17:55;10.70;99.90
44565;DHT22;30275;51.822;-0.326;2023-04-01T14:20:33;10.60;99.90
44565;DHT22;30275;51.822;-0.326;2023-04-01T14:28:41;10.30;99.90
44565;DHT22;30275;51.822;-0.326;2023-04-01T14:34:14;10.10;99.90
44565;DHT22;30275;51.822;-0.326;2023-04-01T14:36:51;10.10;99.90
44565;DHT22;30275;51.822;-0.326;2023-04-01T14:45:21;9.70;99.90
44565;DHT22;30275;51.822;-0.326;2023-04-01T14:48:07;9.70;99.90
44565;DHT22;30275;51.822;-0.326;2023-04-01T14:50:50;9.70;99.90
44565;DHT22;30275;51.822;-0.326;2023-04-01T14:55:57;9.60;99.90
44565;DHT22;30275;51.822;-0.326;2023-04-01T15:10:05;9.50;99.90
44565;DHT22;30275;51.822;-0.326;2023-04-01T15:12:29;9.50;99.90
44565;DHT22;30275;51.822;-0.326;2023-04-01T15:18:14;9.40;99.90
44565;DHT22;30275;51.822;-0.326;2023-04-01T15:21:06;9.30;99.90
44565;DHT22;30275;51.822;-0.326;2023-04-01T15:40:54;9.40;99.90
44565;DHT22;30275;51.822;-0.326;2023-04-01T15:52:05;9.40;99.90
44565;DHT22;30275;51.822;-0.326;2023-04-01T15:57:27;9.20;99.90
44565;DHT22;30275;51.822;-0.326;2023-04-01T16:02:35;9.40;99.90
44565;DHT22;30275;51.822;-0.326;2023-04-01T16:11:14;9.80;99.90
44565;DHT22;30275;51.822;-0.326;2023-04-01T16:22:12;9.70;99.90
44565;DHT22;30275;51.822;-0.326;2023-04-01T16:24:41;9.70;99.90
44565;DHT22;30275;51.822;-0.326;2023-04-01T16:32:56;9.40;99.90
44565;DHT22;30275;51.822;-0.326;2023-04-01T16:35:30;9.50;99.90
44565;DHT22;30275;51.822;-0.326;2023-04-01T16:43:39;9.80;99.90
44565;DHT22;30275;51.822;-0.326;2023-04-01T16:46:26;9.80;99.90
44565;DHT22;30275;51.822;-0.326;2023-04-01T16:57:17;9.60;99.90
44565;DHT22;30275;51.822;-0.326;2023-04-01T17:02:20;9.50;99.90
44565;DHT22;30275;51.822;-0.326;2023-04-01T17:10:01;9.30;99.90
44565;DHT22;30275;51.822;-0.326;2023-04-01T17:12:39;9.30;99.90
44565;DHT22;30275;51.822;-0.326;2023-04-01T17:17:59;9.30;99.90
44565;DHT22;30275;51.822;-0.326;2023-04-01T17:20:46;9.20;99.90
44565;DHT22;30275;51.822;-0.326;2023-04-01T17:23:49;9.30;99.90
44565;DHT22;30275;51.822;-0.326;2023-04-01T17:43:03;9.20;99.90
44565;DHT22;30275;51.822;-0.326;2023-04-01T17:45:47;9.10;99.90
44565;DHT22;30275;51.822;-0.326;2023-04-01T17:53:45;9.20;99.90
44565;DHT22;30275;51.822;-0.326;2023-04-01T17:59:25;9.10;99.90
44565;DHT22;30275;51.822;-0.326;2023-04-01T18:04:41;9.00;99.90
44565;DHT22;30275;51.822;-0.326;2023-04-01T18:13:14;8.90;99.90
44565;DHT22;30275;51.822;-0.326;2023-04-01T18:18:42;8.90;99.90
44565;DHT22;30275;51.822;-0.326;2023-04-01T18:23:56;8.70;99.90
44565;DHT22;30275;51.822;-0.326;2023-04-01T18:26:27;8.70;99.90
44565;DHT22;30275;51.822;-0.326;2023-04-01T18:35:12;8.40;99.90
44565;DHT22;30275;51.822;-0.326;2023-04-01T18:38:00;8.40;99.90
44565;DHT22;30275;51.822;-0.326;2023-04-01T18:40:50;8.30;99.90
44565;DHT22;30275;51.822;-0.326;2023-04-01T18:43:39;8.30;99.90
44565;DHT22;30275;51.822;-0.326;2023-04-01T18:46:21;8.30;99.90
44565;DHT22;30275;51.822;-0.326;2023-04-01T18:52:10;8.20;99.90
44565;DHT22;30275;51.822;-0.326;2023-04-01T18:57:38;8.00;99.90
44565;DHT22;30275;51.822;-0.326;2023-04-01T19:02:50;8.00;99.90
44565;DHT22;30275;51.822;-0.326;2023-04-01T19:05:38;7.90;99.90
44565;DHT22;30275;51.822;-0.326;2023-04-01T19:08:32;7.90;99.90
44565;DHT22;30275;51.822;-0.326;2023-04-01T19:19:25;7.80;99.90
44565;DHT22;30275;51.822;-0.326;2023-04-01T19:21:58;7.80;99.90
44565;DHT22;30275;51.822;-0.326;2023-04-01T19:27:06;7.80;99.90
44565;DHT22;30275;51.822;-0.326;2023-04-01T19:38:02;7.80;99.90
44565;DHT22;30275;51.822;-0.326;2023-04-01T19:45:41;7.70;99.90
44565;DHT22;30275;51.822;-0.326;2023-04-01T19:54:20;7.60;99.90
44565;DHT22;30275;51.822;-0.326;2023-04-01T20:02:28;7.60;99.90
44565;DHT22;30275;51.822;-0.326;2023-04-01T20:04:59;7.60;99.90
44565;DHT22;30275;51.822;-0.326;2023-04-01T20:08:00;7.50;99.90
44565;DHT22;30275;51.822;-0.326;2023-04-01T20:10:46;7.40;99.90
44565;DHT22;30275;51.822;-0.326;2023-04-01T20:13:45;7.40;99.90
44565;DHT22;30275;51.822;-0.326;2023-04-01T20:16:14;7.40;99.90
44565;DHT22;30275;51.822;-0.326;2023-04-01T20:18:56;7.40;99.90
44565;DHT22;30275;51.822;-0.326;2023-04-01T20:21:37;7.40;99.90
44565;DHT22;30275;51.822;-0.326;2023-04-01T20:24:30;7.30;99.90
44565;DHT22;30275;51.822;-0.326;2023-04-01T20:27:20;7.30;99.90
44565;DHT22;30275;51.822;-0.326;2023-04-01T20:41:11;7.30;99.90
44565;DHT22;30275;51.822;-0.326;2023-04-01T20:49:39;7.30;99.90
44565;DHT22;30275;51.822;-0.326;2023-04-01T21:00:26;7.30;99.90
44565;DHT22;30275;51.822;-0.326;2023-04-01T21:03:10;7.30;99.90
44565;DHT22;30275;51.822;-0.326;2023-04-01T21:11:15;7.40;99.90
44565;DHT22;30275;51.822;-0.326;2023-04-01T21:13:55;7.40;99.90
44565;DHT22;30275;51.822;-0.326;2023-04-01T21:16:37;7.40;99.90
44565;DHT22;30275;51.822;-0.326;2023-04-01T21:19:12;7.40;99.90
44565;DHT22;30275;51.822;-0.326;2023-04-01T21:27:57;7.40;99.90
44565;DHT22;30275;51.822;-0.326;2023-04-01T21:33:42;7.40;99.90
44565;DHT22;30275;51.822;-0.326;2023-04-01T21:55:53;7.20;99.90
44565;DHT22;30275;51.822;-0.326;2023-04-01T22:02:37;7.20;99.90
44565;DHT22;30275;51.822;-0.326;2023-04-01T22:07:47;7.20;99.90
44565;DHT22;30275;51.822;-0.326;2023-04-01T22:10:25;7.20;99.90
44565;DHT22;30275;51.822;-0.326;2023-04-01T22:15:45;7.10;99.90
44565;DHT22;30275;51.822;-0.326;2023-04-01T22:24:16;7.00;99.90
44565;DHT22;30275;51.822;-0.326;2023-04-01T22:29:32;7.00;99.90
44565;DHT22;30275;51.822;-0.326;2023-04-01T22:34:47;7.00;99.90
44565;DHT22;30275;51.822;-0.326;2023-04-01T22:42:42;7.00;99.90
44565;DHT22;30275;51.822;-0.326;2023-04-01T22:45:33;6.90;99.90
44565;DHT22;30275;51.822;-0.326;2023-04-01T22:48:11;7.00;99.90
44565;DHT22;30275;51.822;-0.326;2023-04-01T22:56:40;7.00;99.90
44565;DHT22;30275;51.822;-0.326;2023-04-01T23:01:41;7.00;99.90
44565;DHT22;30275;51.822;-0.326;2023-04-01T23:04:09;7.00;99.90
44565;DHT22;30275;51.822;-0.326;2023-04-01T23:06:41;6.90;99.90
44565;DHT22;30275;51.822;-0.326;2023-04-01T23:09:17;6.90;99.90
44565;DHT22;30275;51.822;-0.326;2023-04-01T23:11:55;6.80;99.90
44565;DHT22;30275;51.822;-0.326;2023-04-01T23:19:49;6.70;99.90
44565;DHT22;30275;51.822;-0.326;2023-04-01T23:27:53;6.70;99.90
44565;DHT22;30275;51.822;-0.326;2023-04-01T23:33:28;6.70;99.90
44565;DHT22;30275;51.822;-0.326;2023-04-01T23:36:00;6.60;99.90
44565;DHT22;30275;51.822;-0.326;2023-04-01T23:38:37;6.60;99.90
44565;DHT22;30275;51.822;-0.326;2023-04-01T23:41:05;6.60;99.90
44565;DHT22;30275;51.822;-0.326;2023-04-01T23:43:34;6.60;99.90
44565;DHT22;30275;51.822;-0.326;2023-04-01T23:46:03;6.60;99.90
44565;DHT22;30275;51.822;-0.326;2023-04-01T23:48:35;6.60;99.90
44565;DHT22;30275;51.822;-0.326;2023-04-01T23:51:02;6.60;99.90
44565;DHT22;30275;51.822;-0.326;2023-04-01T23:53:31;6.60;99.90
44565;DHT22;30275;51.822;-0.326;2023-04-01T23:55:58;6.60;99.90
